Swans Island, Maine
Current Conditions -  °F | °C
As of 11:35 PM on Saturday 22 Nov 2014 (Local Time) from KBHB Reporting Station
Few Clouds Few Clouds  
Wind Chill: 33°   Ceiling: Unl
Heat Index: 39°   Visibility: 10mi
Dew Point: 21°   Wind: 9mph
Humidity: 49%   Direction: 250°WSW
Pressure: 29.93"   Gusts: 21mph
Location:  44.14°N, 68.45°W
Report Text: KBHB 230435Z AUTO 25008G18KT 10SM FEW060 04/M06 A2993 RMK AO1
Loading
Personal Weather Stations






























Interactive Weather Map New forecast layout! Learn more

10-Day Weather Forecast

Advertisements
Track Severe Weather on mobile